sensor_id;sensor_type;location;lat;lon;timestamp;temperature;humidity
39951;DHT22;25629;51.444;-2.606;2022-12-10T00:01:28;-0.30;99.90
39951;DHT22;25629;51.444;-2.606;2022-12-10T00:03:54;-0.30;99.90
39951;DHT22;25629;51.444;-2.606;2022-12-10T00:06:23;-0.30;99.90
39951;DHT22;25629;51.444;-2.606;2022-12-10T00:08:49;-0.40;99.90
39951;DHT22;25629;51.444;-2.606;2022-12-10T00:11:16;-0.40;99.90
39951;DHT22;25629;51.444;-2.606;2022-12-10T00:13:43;-0.40;99.90
39951;DHT22;25629;51.444;-2.606;2022-12-10T00:16:10;-0.40;99.90
39951;DHT22;25629;51.444;-2.606;2022-12-10T00:18:37;-0.40;99.90
39951;DHT22;25629;51.444;-2.606;2022-12-10T00:21:07;-0.40;99.90
39951;DHT22;25629;51.444;-2.606;2022-12-10T00:23:34;-0.40;99.90
39951;DHT22;25629;51.444;-2.606;2022-12-10T00:26:11;-0.40;99.90
39951;DHT22;25629;51.444;-2.606;2022-12-10T00:28:38;-0.50;99.90
39951;DHT22;25629;51.444;-2.606;2022-12-10T00:31:21;-0.50;99.90
39951;DHT22;25629;51.444;-2.606;2022-12-10T00:33:47;-0.50;99.90
39951;DHT22;25629;51.444;-2.606;2022-12-10T00:36:14;-0.50;99.90
39951;DHT22;25629;51.444;-2.606;2022-12-10T00:38:41;-0.50;99.90
39951;DHT22;25629;51.444;-2.606;2022-12-10T00:41:07;-0.40;99.90
39951;DHT22;25629;51.444;-2.606;2022-12-10T00:43:33;-0.40;99.90
39951;DHT22;25629;51.444;-2.606;2022-12-10T00:45:59;-0.40;99.90
39951;DHT22;25629;51.444;-2.606;2022-12-10T00:48:25;-0.40;99.90
39951;DHT22;25629;51.444;-2.606;2022-12-10T00:50:58;-0.40;99.90
39951;DHT22;25629;51.444;-2.606;2022-12-10T00:53:25;-0.50;99.90
39951;DHT22;25629;51.444;-2.606;2022-12-10T00:55:52;-0.50;99.90
39951;DHT22;25629;51.444;-2.606;2022-12-10T00:58:17;-0.50;99.90
39951;DHT22;25629;51.444;-2.606;2022-12-10T01:00:43;-0.40;99.90
39951;DHT22;25629;51.444;-2.606;2022-12-10T01:03:09;-0.40;99.90
39951;DHT22;25629;51.444;-2.606;2022-12-10T01:05:34;-0.50;99.90
39951;DHT22;25629;51.444;-2.606;2022-12-10T01:08:00;-0.50;99.90
39951;DHT22;25629;51.444;-2.606;2022-12-10T01:10:26;-0.50;99.90
39951;DHT22;25629;51.444;-2.606;2022-12-10T01:12:51;-0.60;99.90
39951;DHT22;25629;51.444;-2.606;2022-12-10T01:15:17;-0.60;99.90
39951;DHT22;25629;51.444;-2.606;2022-12-10T01:17:43;-0.60;99.90
39951;DHT22;25629;51.444;-2.606;2022-12-10T01:20:09;-0.70;99.90
39951;DHT22;25629;51.444;-2.606;2022-12-10T01:22:35;-0.70;99.90
39951;DHT22;25629;51.444;-2.606;2022-12-10T01:25:00;-0.70;99.90
39951;DHT22;25629;51.444;-2.606;2022-12-10T01:27:26;-0.60;99.90
39951;DHT22;25629;51.444;-2.606;2022-12-10T01:29:52;-0.60;99.90
39951;DHT22;25629;51.444;-2.606;2022-12-10T01:32:18;-0.60;99.90
39951;DHT22;25629;51.444;-2.606;2022-12-10T01:34:43;-0.60;99.90
39951;DHT22;25629;51.444;-2.606;2022-12-10T01:37:09;-0.60;99.90
39951;DHT22;25629;51.444;-2.606;2022-12-10T01:39:35;-0.60;99.90
39951;DHT22;25629;51.444;-2.606;2022-12-10T01:42:00;-0.60;99.90
39951;DHT22;25629;51.444;-2.606;2022-12-10T01:46:54;-0.60;99.90
39951;DHT22;25629;51.444;-2.606;2022-12-10T01:49:31;-0.70;99.90
39951;DHT22;25629;51.444;-2.606;2022-12-10T01:51:58;-0.70;99.90
39951;DHT22;25629;51.444;-2.606;2022-12-10T01:54:34;-0.70;99.90
39951;DHT22;25629;51.444;-2.606;2022-12-10T01:57:05;-0.70;99.90
39951;DHT22;25629;51.444;-2.606;2022-12-10T01:59:32;-0.70;99.90
39951;DHT22;25629;51.444;-2.606;2022-12-10T02:06:59;-0.80;99.90
39951;DHT22;25629;51.444;-2.606;2022-12-10T02:09:52;-0.80;99.90
39951;DHT22;25629;51.444;-2.606;2022-12-10T02:15:18;-0.90;99.90
39951;DHT22;25629;51.444;-2.606;2022-12-10T02:17:48;-0.90;99.90
39951;DHT22;25629;51.444;-2.606;2022-12-10T02:20:30;-0.90;99.90
39951;DHT22;25629;51.444;-2.606;2022-12-10T02:23:04;-0.90;99.90
39951;DHT22;25629;51.444;-2.606;2022-12-10T02:25:53;-0.80;99.90
39951;DHT22;25629;51.444;-2.606;2022-12-10T02:31:21;-0.80;99.90
39951;DHT22;25629;51.444;-2.606;2022-12-10T02:33:53;-0.80;99.90
39951;DHT22;25629;51.444;-2.606;2022-12-10T02:36:21;-0.80;99.90
39951;DHT22;25629;51.444;-2.606;2022-12-10T02:38:51;-0.80;99.90
39951;DHT22;25629;51.444;-2.606;2022-12-10T02:41:25;-0.80;99.90
39951;DHT22;25629;51.444;-2.606;2022-12-10T02:43:54;-0.90;99.90
39951;DHT22;25629;51.444;-2.606;2022-12-10T02:46:23;-0.90;99.90
39951;DHT22;25629;51.444;-2.606;2022-12-10T02:48:50;-1.00;99.90
39951;DHT22;25629;51.444;-2.606;2022-12-10T02:51:16;-1.00;99.90
39951;DHT22;25629;51.444;-2.606;2022-12-10T02:53:43;-0.90;99.90
39951;DHT22;25629;51.444;-2.606;2022-12-10T02:59:07;-0.70;99.90
39951;DHT22;25629;51.444;-2.606;2022-12-10T03:01:57;-0.60;99.90
39951;DHT22;25629;51.444;-2.606;2022-12-10T03:04:37;-0.70;99.90
39951;DHT22;25629;51.444;-2.606;2022-12-10T03:07:14;-0.70;99.90
39951;DHT22;25629;51.444;-2.606;2022-12-10T03:09:49;-0.80;99.90
39951;DHT22;25629;51.444;-2.606;2022-12-10T03:12:25;-0.80;99.90
39951;DHT22;25629;51.444;-2.606;2022-12-10T03:14:58;-0.90;99.90
39951;DHT22;25629;51.444;-2.606;2022-12-10T03:17:24;-0.90;99.90
39951;DHT22;25629;51.444;-2.606;2022-12-10T03:19:52;-0.90;99.90
39951;DHT22;25629;51.444;-2.606;2022-12-10T03:22:19;-1.00;99.90
39951;DHT22;25629;51.444;-2.606;2022-12-10T03:24:46;-1.10;99.90
39951;DHT22;25629;51.444;-2.606;2022-12-10T03:27:14;-1.10;99.90
39951;DHT22;25629;51.444;-2.606;2022-12-10T03:29:45;-1.10;99.90
39951;DHT22;25629;51.444;-2.606;2022-12-10T03:32:12;-1.10;99.90
39951;DHT22;25629;51.444;-2.606;2022-12-10T03:34:38;-1.10;99.90
39951;DHT22;25629;51.444;-2.606;2022-12-10T03:37:05;-1.10;99.90
39951;DHT22;25629;51.444;-2.606;2022-12-10T03:39:31;-1.10;99.90
39951;DHT22;25629;51.444;-2.606;2022-12-10T03:41:57;-1.20;99.90
39951;DHT22;25629;51.444;-2.606;2022-12-10T03:44:31;-1.20;99.90
39951;DHT22;25629;51.444;-2.606;2022-12-10T03:46:57;-1.20;99.90
39951;DHT22;25629;51.444;-2.606;2022-12-10T03:49:23;-1.20;99.90
39951;DHT22;25629;51.444;-2.606;2022-12-10T03:51:49;-1.20;99.90
39951;DHT22;25629;51.444;-2.606;2022-12-10T03:54:14;-1.20;99.90
39951;DHT22;25629;51.444;-2.606;2022-12-10T03:56:40;-1.20;99.90
39951;DHT22;25629;51.444;-2.606;2022-12-10T03:59:06;-1.20;99.90
39951;DHT22;25629;51.444;-2.606;2022-12-10T04:01:31;-1.30;99.90
39951;DHT22;25629;51.444;-2.606;2022-12-10T04:03:57;-1.30;99.90
39951;DHT22;25629;51.444;-2.606;2022-12-10T04:06:23;-1.30;99.90
39951;DHT22;25629;51.444;-2.606;2022-12-10T04:08:49;-1.30;99.90
39951;DHT22;25629;51.444;-2.606;2022-12-10T04:11:15;-1.40;99.90
39951;DHT22;25629;51.444;-2.606;2022-12-10T04:13:42;-1.30;99.90
39951;DHT22;25629;51.444;-2.606;2022-12-10T04:16:27;-1.30;99.90
39951;DHT22;25629;51.444;-2.606;2022-12-10T04:19:02;-1.30;99.90
39951;DHT22;25629;51.444;-2.606;2022-12-10T04:21:29;-1.30;99.90
39951;DHT22;25629;51.444;-2.606;2022-12-10T04:24:16;-1.30;99.90
39951;DHT22;25629;51.444;-2.606;2022-12-10T04:27:10;-1.30;99.90
39951;DHT22;25629;51.444;-2.606;2022-12-10T04:29:36;-1.30;99.90
39951;DHT22;25629;51.444;-2.606;2022-12-10T04:32:02;-1.30;99.90
39951;DHT22;25629;51.444;-2.606;2022-12-10T04:34:28;-1.30;99.90
39951;DHT22;25629;51.444;-2.606;2022-12-10T04:36:54;-1.30;99.90
39951;DHT22;25629;51.444;-2.606;2022-12-10T04:39:20;-1.40;99.90
39951;DHT22;25629;51.444;-2.606;2022-12-10T04:41:47;-1.40;99.90
39951;DHT22;25629;51.444;-2.606;2022-12-10T04:44:13;-1.40;99.90
39951;DHT22;25629;51.444;-2.606;2022-12-10T04:46:39;-1.40;99.90
39951;DHT22;25629;51.444;-2.606;2022-12-10T04:49:06;-1.40;99.90
39951;DHT22;25629;51.444;-2.606;2022-12-10T04:51:32;-1.40;99.90
39951;DHT22;25629;51.444;-2.606;2022-12-10T04:53:58;-1.40;99.90
39951;DHT22;25629;51.444;-2.606;2022-12-10T04:56:24;-1.40;99.90
39951;DHT22;25629;51.444;-2.606;2022-12-10T04:58:50;-1.40;99.90
39951;DHT22;25629;51.444;-2.606;2022-12-10T05:01:16;-1.40;99.90
39951;DHT22;25629;51.444;-2.606;2022-12-10T05:03:44;-1.40;99.90
39951;DHT22;25629;51.444;-2.606;2022-12-10T05:06:15;-1.40;99.90
39951;DHT22;25629;51.444;-2.606;2022-12-10T05:08:41;-1.40;99.90
39951;DHT22;25629;51.444;-2.606;2022-12-10T05:11:10;-1.40;99.90
39951;DHT22;25629;51.444;-2.606;2022-12-10T05:13:37;-1.40;99.90
39951;DHT22;25629;51.444;-2.606;2022-12-10T05:16:04;-1.40;99.90
39951;DHT22;25629;51.444;-2.606;2022-12-10T05:18:30;-1.40;99.90
39951;DHT22;25629;51.444;-2.606;2022-12-10T05:21:00;-1.30;99.90
39951;DHT22;25629;51.444;-2.606;2022-12-10T05:23:26;-1.30;99.90
39951;DHT22;25629;51.444;-2.606;2022-12-10T05:28:29;-1.30;99.90
39951;DHT22;25629;51.444;-2.606;2022-12-10T05:30:56;-1.30;99.90
39951;DHT22;25629;51.444;-2.606;2022-12-10T05:33:22;-1.30;99.90
39951;DHT22;25629;51.444;-2.606;2022-12-10T05:35:59;-1.30;99.90
39951;DHT22;25629;51.444;-2.606;2022-12-10T05:38:26;-1.30;99.90
39951;DHT22;25629;51.444;-2.606;2022-12-10T05:40:53;-1.30;99.90
39951;DHT22;25629;51.444;-2.606;2022-12-10T05:43:19;-1.40;99.90
39951;DHT22;25629;51.444;-2.606;2022-12-10T05:45:46;-1.30;99.90
39951;DHT22;25629;51.444;-2.606;2022-12-10T05:48:14;-1.30;99.90
39951;DHT22;25629;51.444;-2.606;2022-12-10T05:50:40;-1.30;99.90
39951;DHT22;25629;51.444;-2.606;2022-12-10T05:53:06;-1.40;99.90
39951;DHT22;25629;51.444;-2.606;2022-12-10T05:55:32;-1.40;99.90
39951;DHT22;25629;51.444;-2.606;2022-12-10T05:57:59;-1.30;99.90
39951;DHT22;25629;51.444;-2.606;2022-12-10T06:00:26;-1.40;99.90
39951;DHT22;25629;51.444;-2.606;2022-12-10T06:02:52;-1.30;99.90
39951;DHT22;25629;51.444;-2.606;2022-12-10T06:05:18;-1.30;99.90
39951;DHT22;25629;51.444;-2.606;2022-12-10T06:07:44;-1.30;99.90
39951;DHT22;25629;51.444;-2.606;2022-12-10T06:10:10;-1.20;99.90
39951;DHT22;25629;51.444;-2.606;2022-12-10T06:12:36;-1.20;99.90
39951;DHT22;25629;51.444;-2.606;2022-12-10T06:15:02;-1.30;99.90
39951;DHT22;25629;51.444;-2.606;2022-12-10T06:17:28;-1.30;99.90
39951;DHT22;25629;51.444;-2.606;2022-12-10T06:19:53;-1.30;99.90
39951;DHT22;25629;51.444;-2.606;2022-12-10T06:22:19;-1.30;99.90
39951;DHT22;25629;51.444;-2.606;2022-12-10T06:24:45;-1.30;99.90
39951;DHT22;25629;51.444;-2.606;2022-12-10T06:27:10;-1.30;99.90
39951;DHT22;25629;51.444;-2.606;2022-12-10T06:29:36;-1.30;99.90
39951;DHT22;25629;51.444;-2.606;2022-12-10T06:32:02;-1.30;99.90
39951;DHT22;25629;51.444;-2.606;2022-12-10T06:34:27;-1.20;99.90
39951;DHT22;25629;51.444;-2.606;2022-12-10T06:36:53;-1.20;99.90
39951;DHT22;25629;51.444;-2.606;2022-12-10T06:39:19;-1.20;99.90
39951;DHT22;25629;51.444;-2.606;2022-12-10T06:41:44;-1.30;99.90
39951;DHT22;25629;51.444;-2.606;2022-12-10T06:44:11;-1.40;99.90
39951;DHT22;25629;51.444;-2.606;2022-12-10T06:46:39;-1.40;99.90
39951;DHT22;25629;51.444;-2.606;2022-12-10T06:49:06;-1.40;99.90
39951;DHT22;25629;51.444;-2.606;2022-12-10T06:51:32;-1.30;99.90
39951;DHT22;25629;51.444;-2.606;2022-12-10T06:53:58;-1.30;99.90
39951;DHT22;25629;51.444;-2.606;2022-12-10T06:56:23;-1.20;99.90
39951;DHT22;25629;51.444;-2.606;2022-12-10T06:58:49;-1.30;99.90
39951;DHT22;25629;51.444;-2.606;2022-12-10T07:01:22;-1.30;99.90
39951;DHT22;25629;51.444;-2.606;2022-12-10T07:03:52;-1.40;99.90
39951;DHT22;25629;51.444;-2.606;2022-12-10T07:06:18;-1.40;99.90
39951;DHT22;25629;51.444;-2.606;2022-12-10T07:08:44;-1.40;99.90
39951;DHT22;25629;51.444;-2.606;2022-12-10T07:11:14;-1.40;99.90
39951;DHT22;25629;51.444;-2.606;2022-12-10T07:13:40;-1.40;99.90
39951;DHT22;25629;51.444;-2.606;2022-12-10T07:16:36;-1.40;99.90
39951;DHT22;25629;51.444;-2.606;2022-12-10T07:19:02;-1.30;99.90
39951;DHT22;25629;51.444;-2.606;2022-12-10T07:21:31;-1.20;99.90
39951;DHT22;25629;51.444;-2.606;2022-12-10T07:24:00;-1.00;99.90
39951;DHT22;25629;51.444;-2.606;2022-12-10T07:26:28;-0.70;99.90
39951;DHT22;25629;51.444;-2.606;2022-12-10T07:28:54;-0.40;99.90
39951;DHT22;25629;51.444;-2.606;2022-12-10T07:31:21;-0.10;99.90
39951;DHT22;25629;51.444;-2.606;2022-12-10T07:33:47;0.00;99.90
39951;DHT22;25629;51.444;-2.606;2022-12-10T07:36:13;0.20;99.90
39951;DHT22;25629;51.444;-2.606;2022-12-10T07:38:40;0.10;99.90
39951;DHT22;25629;51.444;-2.606;2022-12-10T07:41:10;0.20;99.90
39951;DHT22;25629;51.444;-2.606;2022-12-10T07:43:38;0.20;99.90
39951;DHT22;25629;51.444;-2.606;2022-12-10T07:46:16;0.30;99.90
39951;DHT22;25629;51.444;-2.606;2022-12-10T07:48:44;0.30;99.90
39951;DHT22;25629;51.444;-2.606;2022-12-10T07:51:10;0.40;99.90
39951;DHT22;25629;51.444;-2.606;2022-12-10T07:53:36;0.50;99.90
39951;DHT22;25629;51.444;-2.606;2022-12-10T07:56:02;0.50;99.90
39951;DHT22;25629;51.444;-2.606;2022-12-10T07:58:28;0.60;99.90
39951;DHT22;25629;51.444;-2.606;2022-12-10T08:00:54;0.60;99.90
39951;DHT22;25629;51.444;-2.606;2022-12-10T08:03:20;0.60;99.90
39951;DHT22;25629;51.444;-2.606;2022-12-10T08:05:45;0.60;99.90
39951;DHT22;25629;51.444;-2.606;2022-12-10T08:08:11;0.50;99.90
39951;DHT22;25629;51.444;-2.606;2022-12-10T08:10:38;0.50;99.90
39951;DHT22;25629;51.444;-2.606;2022-12-10T08:13:04;0.50;99.90
39951;DHT22;25629;51.444;-2.606;2022-12-10T08:15:30;0.40;99.90
39951;DHT22;25629;51.444;-2.606;2022-12-10T08:17:55;0.40;99.90
39951;DHT22;25629;51.444;-2.606;2022-12-10T08:20:22;0.30;99.90
39951;DHT22;25629;51.444;-2.606;2022-12-10T08:22:48;0.30;99.90
39951;DHT22;25629;51.444;-2.606;2022-12-10T08:25:13;0.40;99.90
39951;DHT22;25629;51.444;-2.606;2022-12-10T08:27:39;0.40;99.90
39951;DHT22;25629;51.444;-2.606;2022-12-10T08:30:05;0.30;99.90
39951;DHT22;25629;51.444;-2.606;2022-12-10T08:32:31;0.20;99.90
39951;DHT22;25629;51.444;-2.606;2022-12-10T08:34:57;0.30;99.90
39951;DHT22;25629;51.444;-2.606;2022-12-10T08:37:22;0.20;99.90
39951;DHT22;25629;51.444;-2.606;2022-12-10T08:39:48;0.20;99.90
39951;DHT22;25629;51.444;-2.606;2022-12-10T08:42:14;0.20;99.90
39951;DHT22;25629;51.444;-2.606;2022-12-10T08:44:40;0.30;99.90
39951;DHT22;25629;51.444;-2.606;2022-12-10T08:47:05;0.30;99.90
39951;DHT22;25629;51.444;-2.606;2022-12-10T08:49:31;0.30;99.90
39951;DHT22;25629;51.444;-2.606;2022-12-10T08:51:57;0.40;99.90
39951;DHT22;25629;51.444;-2.606;2022-12-10T08:54:22;0.40;99.90
39951;DHT22;25629;51.444;-2.606;2022-12-10T08:56:48;0.40;99.90
39951;DHT22;25629;51.444;-2.606;2022-12-10T08:59:14;0.40;99.90
39951;DHT22;25629;51.444;-2.606;2022-12-10T09:01:39;0.30;99.90
39951;DHT22;25629;51.444;-2.606;2022-12-10T09:04:06;0.20;99.90
39951;DHT22;25629;51.444;-2.606;2022-12-10T09:06:32;0.30;99.90
39951;DHT22;25629;51.444;-2.606;2022-12-10T09:08:57;0.30;99.90
39951;DHT22;25629;51.444;-2.606;2022-12-10T09:11:27;0.40;99.90
39951;DHT22;25629;51.444;-2.606;2022-12-10T09:13:53;0.50;99.90
39951;DHT22;25629;51.444;-2.606;2022-12-10T09:16:19;0.60;99.90
39951;DHT22;25629;51.444;-2.606;2022-12-10T09:18:44;0.70;99.90
39951;DHT22;25629;51.444;-2.606;2022-12-10T09:21:14;0.80;99.90
39951;DHT22;25629;51.444;-2.606;2022-12-10T09:23:41;0.90;99.90
39951;DHT22;25629;51.444;-2.606;2022-12-10T09:26:13;1.10;99.90
39951;DHT22;25629;51.444;-2.606;2022-12-10T09:28:39;1.30;99.90
39951;DHT22;25629;51.444;-2.606;2022-12-10T09:31:06;1.40;99.90
39951;DHT22;25629;51.444;-2.606;2022-12-10T09:33:33;1.60;99.90
39951;DHT22;25629;51.444;-2.606;2022-12-10T09:35:59;1.80;99.90
39951;DHT22;25629;51.444;-2.606;2022-12-10T09:38:25;2.10;99.90
39951;DHT22;25629;51.444;-2.606;2022-12-10T09:46:57;2.90;99.90
39951;DHT22;25629;51.444;-2.606;2022-12-10T09:52:02;3.20;99.90
39951;DHT22;25629;51.444;-2.606;2022-12-10T09:54:48;3.40;99.90
39951;DHT22;25629;51.444;-2.606;2022-12-10T09:57:28;3.50;99.90
39951;DHT22;25629;51.444;-2.606;2022-12-10T09:59:56;3.60;99.90
39951;DHT22;25629;51.444;-2.606;2022-12-10T10:02:30;3.80;99.90
39951;DHT22;25629;51.444;-2.606;2022-12-10T10:07:35;3.90;99.90
39951;DHT22;25629;51.444;-2.606;2022-12-10T10:10:16;4.00;99.90
39951;DHT22;25629;51.444;-2.606;2022-12-10T10:12:47;4.00;99.90
39951;DHT22;25629;51.444;-2.606;2022-12-10T10:15:16;4.10;99.90
39951;DHT22;25629;51.444;-2.606;2022-12-10T10:17:43;4.30;99.90
39951;DHT22;25629;51.444;-2.606;2022-12-10T10:20:13;4.40;99.90
39951;DHT22;25629;51.444;-2.606;2022-12-10T10:22:39;4.50;99.90
39951;DHT22;25629;51.444;-2.606;2022-12-10T10:25:13;4.60;99.90
39951;DHT22;25629;51.444;-2.606;2022-12-10T10:27:39;4.60;99.90
39951;DHT22;25629;51.444;-2.606;2022-12-10T10:30:06;4.60;99.90
39951;DHT22;25629;51.444;-2.606;2022-12-10T10:35:05;4.70;99.90
39951;DHT22;25629;51.444;-2.606;2022-12-10T10:37:40;4.90;99.90
39951;DHT22;25629;51.444;-2.606;2022-12-10T10:40:18;5.00;99.90
39951;DHT22;25629;51.444;-2.606;2022-12-10T10:42:46;5.20;99.90
39951;DHT22;25629;51.444;-2.606;2022-12-10T10:48:18;5.20;99.90
39951;DHT22;25629;51.444;-2.606;2022-12-10T10:53:31;5.40;99.90
39951;DHT22;25629;51.444;-2.606;2022-12-10T10:56:28;5.30;99.90
39951;DHT22;25629;51.444;-2.606;2022-12-10T10:59:04;5.30;99.90
39951;DHT22;25629;51.444;-2.606;2022-12-10T11:01:54;5.30;99.90
39951;DHT22;25629;51.444;-2.606;2022-12-10T11:04:28;5.50;99.90
39951;DHT22;25629;51.444;-2.606;2022-12-10T11:06:55;5.70;99.90
39951;DHT22;25629;51.444;-2.606;2022-12-10T11:09:28;5.80;99.90
39951;DHT22;25629;51.444;-2.606;2022-12-10T11:12:20;5.90;99.90
39951;DHT22;25629;51.444;-2.606;2022-12-10T11:14:48;6.00;99.90
39951;DHT22;25629;51.444;-2.606;2022-12-10T11:17:25;6.00;99.90
39951;DHT22;25629;51.444;-2.606;2022-12-10T11:22:25;6.10;99.90
39951;DHT22;25629;51.444;-2.606;2022-12-10T11:24:51;6.10;99.90
39951;DHT22;25629;51.444;-2.606;2022-12-10T11:27:31;6.00;99.90
39951;DHT22;25629;51.444;-2.606;2022-12-10T11:49:51;6.00;99.90
39951;DHT22;25629;51.444;-2.606;2022-12-10T12:13:20;6.60;99.90
39951;DHT22;25629;51.444;-2.606;2022-12-10T12:16:30;6.60;99.90
39951;DHT22;25629;51.444;-2.606;2022-12-10T12:19:01;6.90;99.90
39951;DHT22;25629;51.444;-2.606;2022-12-10T12:21:27;7.10;99.90
39951;DHT22;25629;51.444;-2.606;2022-12-10T12:23:58;7.30;99.90
39951;DHT22;25629;51.444;-2.606;2022-12-10T12:26:35;7.50;99.90
39951;DHT22;25629;51.444;-2.606;2022-12-10T12:32:02;7.50;99.90
39951;DHT22;25629;51.444;-2.606;2022-12-10T12:37:17;7.10;99.90
39951;DHT22;25629;51.444;-2.606;2022-12-10T12:45:48;6.50;99.90
39951;DHT22;25629;51.444;-2.606;2022-12-10T12:50:46;6.30;99.90
39951;DHT22;25629;51.444;-2.606;2022-12-10T12:53:16;6.30;99.90
39951;DHT22;25629;51.444;-2.606;2022-12-10T12:55:55;6.30;99.90
39951;DHT22;25629;51.444;-2.606;2022-12-10T12:58:33;6.40;99.90
39951;DHT22;25629;51.444;-2.606;2022-12-10T13:03:54;6.40;99.90
39951;DHT22;25629;51.444;-2.606;2022-12-10T13:06:24;6.50;99.90
39951;DHT22;25629;51.444;-2.606;2022-12-10T13:11:41;6.50;99.90
39951;DHT22;25629;51.444;-2.606;2022-12-10T13:25:42;6.30;99.90
39951;DHT22;25629;51.444;-2.606;2022-12-10T13:29:12;6.40;99.90
39951;DHT22;25629;51.444;-2.606;2022-12-10T13:31:21;6.30;99.90
39951;DHT22;25629;51.444;-2.606;2022-12-10T13:36:36;6.20;99.90
39951;DHT22;25629;51.444;-2.606;2022-12-10T13:41:42;6.10;99.90
39951;DHT22;25629;51.444;-2.606;2022-12-10T13:50:06;5.90;99.90
39951;DHT22;25629;51.444;-2.606;2022-12-10T13:53:00;5.80;99.90
39951;DHT22;25629;51.444;-2.606;2022-12-10T13:55:39;5.80;99.90
39951;DHT22;25629;51.444;-2.606;2022-12-10T14:01:33;5.80;99.90
39951;DHT22;25629;51.444;-2.606;2022-12-10T14:04:44;5.80;99.90
39951;DHT22;25629;51.444;-2.606;2022-12-10T14:07:08;5.80;99.90
39951;DHT22;25629;51.444;-2.606;2022-12-10T14:09:50;5.90;99.90
39951;DHT22;25629;51.444;-2.606;2022-12-10T14:12:27;6.10;99.90
39951;DHT22;25629;51.444;-2.606;2022-12-10T14:15:01;6.20;99.90
39951;DHT22;25629;51.444;-2.606;2022-12-10T14:17:34;6.20;99.90
39951;DHT22;25629;51.444;-2.606;2022-12-10T14:20:04;6.20;99.90
39951;DHT22;25629;51.444;-2.606;2022-12-10T14:22:35;6.20;99.90
39951;DHT22;25629;51.444;-2.606;2022-12-10T14:25:15;6.10;99.90
39951;DHT22;25629;51.444;-2.606;2022-12-10T14:27:40;5.90;99.90
39951;DHT22;25629;51.444;-2.606;2022-12-10T14:30:17;5.60;99.90
39951;DHT22;25629;51.444;-2.606;2022-12-10T14:32:44;5.30;99.90
39951;DHT22;25629;51.444;-2.606;2022-12-10T14:35:16;5.10;99.90
39951;DHT22;25629;51.444;-2.606;2022-12-10T14:37:44;4.90;99.90
39951;DHT22;25629;51.444;-2.606;2022-12-10T14:40:24;4.80;99.90
39951;DHT22;25629;51.444;-2.606;2022-12-10T14:42:54;4.80;99.90
39951;DHT22;25629;51.444;-2.606;2022-12-10T14:45:22;4.70;99.90
39951;DHT22;25629;51.444;-2.606;2022-12-10T14:47:47;4.70;99.90
39951;DHT22;25629;51.444;-2.606;2022-12-10T14:50:14;4.70;99.90
39951;DHT22;25629;51.444;-2.606;2022-12-10T14:52:43;4.70;99.90
39951;DHT22;25629;51.444;-2.606;2022-12-10T14:55:16;4.60;99.90
39951;DHT22;25629;51.444;-2.606;2022-12-10T14:57:49;4.70;99.90
39951;DHT22;25629;51.444;-2.606;2022-12-10T15:00:19;4.70;99.90
39951;DHT22;25629;51.444;-2.606;2022-12-10T15:02:58;4.70;99.90
39951;DHT22;25629;51.444;-2.606;2022-12-10T15:05:32;4.80;99.90
39951;DHT22;25629;51.444;-2.606;2022-12-10T15:08:12;4.80;99.90
39951;DHT22;25629;51.444;-2.606;2022-12-10T15:10:41;4.90;99.90
39951;DHT22;25629;51.444;-2.606;2022-12-10T15:13:21;5.00;99.90
39951;DHT22;25629;51.444;-2.606;2022-12-10T15:15:49;5.00;99.90
39951;DHT22;25629;51.444;-2.606;2022-12-10T15:18:17;5.00;99.90
39951;DHT22;25629;51.444;-2.606;2022-12-10T15:28:32;4.70;99.90
39951;DHT22;25629;51.444;-2.606;2022-12-10T15:33:54;4.30;99.90
39951;DHT22;25629;51.444;-2.606;2022-12-10T15:36:39;4.30;99.90
39951;DHT22;25629;51.444;-2.606;2022-12-10T15:39:23;4.10;99.90
39951;DHT22;25629;51.444;-2.606;2022-12-10T15:41:54;3.90;99.90
39951;DHT22;25629;51.444;-2.606;2022-12-10T15:44:34;3.80;99.90
39951;DHT22;25629;51.444;-2.606;2022-12-10T15:47:08;3.60;99.90
39951;DHT22;25629;51.444;-2.606;2022-12-10T15:49:35;3.60;99.90
39951;DHT22;25629;51.444;-2.606;2022-12-10T15:52:01;3.60;99.90
39951;DHT22;25629;51.444;-2.606;2022-12-10T15:54:33;3.50;99.90
39951;DHT22;25629;51.444;-2.606;2022-12-10T15:56:59;3.70;99.90
39951;DHT22;25629;51.444;-2.606;2022-12-10T15:59:25;3.70;99.90
39951;DHT22;25629;51.444;-2.606;2022-12-10T16:01:51;3.60;99.90
39951;DHT22;25629;51.444;-2.606;2022-12-10T16:04:17;3.60;99.90
39951;DHT22;25629;51.444;-2.606;2022-12-10T16:06:42;3.50;99.90
39951;DHT22;25629;51.444;-2.606;2022-12-10T16:09:09;3.50;99.90
39951;DHT22;25629;51.444;-2.606;2022-12-10T16:11:35;3.40;99.90
39951;DHT22;25629;51.444;-2.606;2022-12-10T16:14:01;3.30;99.90
39951;DHT22;25629;51.444;-2.606;2022-12-10T16:16:28;3.30;99.90
39951;DHT22;25629;51.444;-2.606;2022-12-10T16:18:54;3.40;99.90
39951;DHT22;25629;51.444;-2.606;2022-12-10T16:21:20;3.40;99.90
39951;DHT22;25629;51.444;-2.606;2022-12-10T16:23:45;3.40;99.90
39951;DHT22;25629;51.444;-2.606;2022-12-10T16:26:21;3.50;99.90
39951;DHT22;25629;51.444;-2.606;2022-12-10T16:28:48;3.50;99.90
39951;DHT22;25629;51.444;-2.606;2022-12-10T16:31:17;3.40;99.90
39951;DHT22;25629;51.444;-2.606;2022-12-10T16:33:43;3.40;99.90
39951;DHT22;25629;51.444;-2.606;2022-12-10T16:36:11;3.40;99.90
39951;DHT22;25629;51.444;-2.606;2022-12-10T16:38:37;3.20;99.90
39951;DHT22;25629;51.444;-2.606;2022-12-10T16:41:09;3.10;99.90
39951;DHT22;25629;51.444;-2.606;2022-12-10T16:43:35;3.00;99.90
39951;DHT22;25629;51.444;-2.606;2022-12-10T16:46:01;2.90;99.90
39951;DHT22;25629;51.444;-2.606;2022-12-10T16:48:27;2.80;99.90
39951;DHT22;25629;51.444;-2.606;2022-12-10T16:50:53;2.80;99.90
39951;DHT22;25629;51.444;-2.606;2022-12-10T16:53:25;2.70;99.90
39951;DHT22;25629;51.444;-2.606;2022-12-10T16:55:52;2.60;99.90
39951;DHT22;25629;51.444;-2.606;2022-12-10T16:58:18;2.50;99.90
39951;DHT22;25629;51.444;-2.606;2022-12-10T17:00:44;2.40;99.90
39951;DHT22;25629;51.444;-2.606;2022-12-10T17:03:17;2.30;99.90
39951;DHT22;25629;51.444;-2.606;2022-12-10T17:05:58;2.20;99.90
39951;DHT22;25629;51.444;-2.606;2022-12-10T17:08:25;2.10;99.90
39951;DHT22;25629;51.444;-2.606;2022-12-10T17:10:51;2.10;99.90
39951;DHT22;25629;51.444;-2.606;2022-12-10T17:13:36;2.10;99.90
39951;DHT22;25629;51.444;-2.606;2022-12-10T17:16:03;2.00;99.90
39951;DHT22;25629;51.444;-2.606;2022-12-10T17:18:30;2.00;99.90
39951;DHT22;25629;51.444;-2.606;2022-12-10T17:20:57;1.90;99.90
39951;DHT22;25629;51.444;-2.606;2022-12-10T17:23:22;1.90;99.90
39951;DHT22;25629;51.444;-2.606;2022-12-10T17:25:48;1.80;99.90
39951;DHT22;25629;51.444;-2.606;2022-12-10T17:28:17;1.80;99.90
39951;DHT22;25629;51.444;-2.606;2022-12-10T17:30:43;1.80;99.90
39951;DHT22;25629;51.444;-2.606;2022-12-10T17:33:12;1.70;99.90
39951;DHT22;25629;51.444;-2.606;2022-12-10T17:35:41;1.70;99.90
39951;DHT22;25629;51.444;-2.606;2022-12-10T17:38:14;1.60;99.90
39951;DHT22;25629;51.444;-2.606;2022-12-10T17:40:41;1.60;99.90
39951;DHT22;25629;51.444;-2.606;2022-12-10T17:43:07;1.70;99.90
39951;DHT22;25629;51.444;-2.606;2022-12-10T17:45:32;1.70;99.90
39951;DHT22;25629;51.444;-2.606;2022-12-10T17:47:58;1.70;99.90
39951;DHT22;25629;51.444;-2.606;2022-12-10T17:50:30;1.70;99.90
39951;DHT22;25629;51.444;-2.606;2022-12-10T17:52:58;1.70;99.90
39951;DHT22;25629;51.444;-2.606;2022-12-10T17:55:25;1.70;99.90
39951;DHT22;25629;51.444;-2.606;2022-12-10T17:57:51;1.70;99.90